createdAt,value
2019-03-22T00:00:03.263Z,13.43
2019-03-22T00:02:32.963Z,15.10
2019-03-22T00:05:01.099Z,12.63
2019-03-22T00:07:27.856Z,13.37
2019-03-22T00:09:55.477Z,14.57
2019-03-22T00:12:24.083Z,15.30
2019-03-22T00:14:51.432Z,14.83
2019-03-22T00:17:18.212Z,10.80
2019-03-22T00:20:05.668Z,14.17
2019-03-22T00:22:34.243Z,16.32
2019-03-22T00:25:00.876Z,15.48
2019-03-22T00:27:28.007Z,12.98
2019-03-22T00:29:58.572Z,11.97
2019-03-22T00:32:25.188Z,13.67
2019-03-22T00:35:01.496Z,16.00
2019-03-22T00:37:46.896Z,14.37
2019-03-22T00:40:17.202Z,14.20
2019-03-22T00:42:45.103Z,18.57
2019-03-22T00:45:11.726Z,18.13
2019-03-22T00:47:38.824Z,16.93
2019-03-22T00:50:06.800Z,16.55
2019-03-22T00:52:36.551Z,14.45
2019-03-22T00:55:05.160Z,14.23
2019-03-22T00:57:33.594Z,12.43
2019-03-22T01:00:01.280Z,13.65
2019-03-22T01:02:30.799Z,12.98
2019-03-22T01:04:59.405Z,14.33
2019-03-22T01:07:26.259Z,14.28
2019-03-22T01:09:56.409Z,13.43
2019-03-22T01:12:27.665Z,13.28
2019-03-22T01:14:55.631Z,11.37
2019-03-22T01:17:23.390Z,12.82
2019-03-22T01:19:54.690Z,16.03
2019-03-22T01:22:22.523Z,12.82
2019-03-22T01:24:54.278Z,15.03
2019-03-22T01:27:23.187Z,18.03
2019-03-22T01:30:00.400Z,13.98
2019-03-22T01:32:29.089Z,14.30
2019-03-22T01:35:01.085Z,15.03
2019-03-22T01:37:32.418Z,13.10
2019-03-22T01:40:01.005Z,14.47
2019-03-22T01:42:28.837Z,14.23
2019-03-22T01:44:56.446Z,13.00
2019-03-22T01:47:23.272Z,14.80
2019-03-22T01:49:50.955Z,11.15
2019-03-22T01:52:22.034Z,12.13
2019-03-22T01:54:49.612Z,15.85
2019-03-22T01:57:33.932Z,18.50
2019-03-22T02:00:05.008Z,16.02
2019-03-22T02:02:31.958Z,19.42
2019-03-22T02:04:58.760Z,12.37
2019-03-22T02:07:26.942Z,16.40
2019-03-22T02:09:53.878Z,9.73
2019-03-22T02:12:20.578Z,14.23
2019-03-22T02:14:47.464Z,12.63
2019-03-22T02:17:14.852Z,14.28
2019-03-22T02:22:27.363Z,14.87
2019-03-22T02:24:54.059Z,10.77
2019-03-22T02:27:20.755Z,12.35
2019-03-22T02:29:49.269Z,11.60
2019-03-22T02:32:16.298Z,13.33
2019-03-22T02:34:42.984Z,13.63
2019-03-22T02:37:09.923Z,9.65
2019-03-22T02:39:36.831Z,13.90
2019-03-22T02:42:03.566Z,12.17
2019-03-22T02:44:30.318Z,15.77
2019-03-22T02:46:57.056Z,16.33
2019-03-22T02:49:23.907Z,14.90
2019-03-22T02:51:50.532Z,12.03
2019-03-22T02:54:17.173Z,15.10
2019-03-22T02:56:44.531Z,11.50
2019-03-22T02:59:11.146Z,15.37
2019-03-22T03:01:37.753Z,13.23
2019-03-22T03:04:04.677Z,12.27
2019-03-22T03:06:32.178Z,12.98
2019-03-22T03:08:59.133Z,11.33
2019-03-22T03:11:26.082Z,15.60
2019-03-22T03:13:53.165Z,13.40
2019-03-22T03:16:19.805Z,12.10
2019-03-22T03:18:46.451Z,15.90
2019-03-22T03:21:14.007Z,17.62
2019-03-22T03:23:40.904Z,16.20
2019-03-22T03:26:07.542Z,13.87
2019-03-22T03:28:37.085Z,9.70
2019-03-22T03:31:02.807Z,11.87
2019-03-22T03:33:29.683Z,14.80
2019-03-22T03:35:56.671Z,13.90
2019-03-22T03:38:23.527Z,12.63
2019-03-22T03:40:50.403Z,12.47
2019-03-22T03:43:17.158Z,11.37
2019-03-22T03:45:52.709Z,12.87
2019-03-22T03:48:19.645Z,13.50
2019-03-22T03:50:46.348Z,13.93
2019-03-22T03:53:13.196Z,12.33
2019-03-22T03:55:39.902Z,14.17
2019-03-22T03:58:06.578Z,16.27
2019-03-22T04:00:33.184Z,14.67
2019-03-22T04:02:59.999Z,14.23
2019-03-22T04:05:26.901Z,15.50
2019-03-22T04:07:53.516Z,15.77
2019-03-22T04:10:21.523Z,11.93
2019-03-22T04:12:49.332Z,17.80
2019-03-22T04:15:16.037Z,12.83
2019-03-22T04:26:04.426Z,17.13
2019-03-22T04:28:44.175Z,14.10
2019-03-22T04:31:16.777Z,10.50
2019-03-22T04:34:03.610Z,10.55
2019-03-22T04:36:32.478Z,13.53
2019-03-22T04:39:02.106Z,14.17
2019-03-22T04:41:31.983Z,12.50
2019-03-22T04:44:03.118Z,12.47
2019-03-22T04:46:31.799Z,10.68
2019-03-22T04:49:09.525Z,15.83
2019-03-22T04:51:37.391Z,12.17
2019-03-22T04:54:09.073Z,15.27
2019-03-22T04:56:36.942Z,16.95
2019-03-22T04:59:04.701Z,17.27
2019-03-22T05:01:31.509Z,12.50
2019-03-22T05:04:01.672Z,15.53
2019-03-22T05:06:28.514Z,16.70
2019-03-22T05:08:55.211Z,15.10
2019-03-22T05:11:22.104Z,14.17
2019-03-22T05:13:48.889Z,13.50
2019-03-22T05:16:15.579Z,16.77
2019-03-22T05:18:44.028Z,15.23
2019-03-22T05:21:10.762Z,13.35
2019-03-22T05:23:37.625Z,14.47
2019-03-22T05:26:05.212Z,16.27
2019-03-22T05:28:32.879Z,17.00
2019-03-22T05:30:59.481Z,17.13
2019-03-22T05:33:26.762Z,15.80
2019-03-22T05:35:54.676Z,15.20
2019-03-22T05:38:21.991Z,15.83
2019-03-22T05:40:48.672Z,14.03
2019-03-22T05:43:19.468Z,16.03
2019-03-22T05:45:47.135Z,16.67
2019-03-22T05:48:15.100Z,19.83
2019-03-22T05:50:53.834Z,21.40
2019-03-22T05:53:20.474Z,15.53
2019-03-22T05:55:47.378Z,13.50
2019-03-22T05:58:14.663Z,18.77
2019-03-22T06:00:42.845Z,10.56
2019-03-22T06:03:09.536Z,13.47
2019-03-22T06:05:37.601Z,15.83
2019-03-22T06:08:05.047Z,14.87
2019-03-22T06:10:31.948Z,15.50
2019-03-22T06:12:58.572Z,14.43
2019-03-22T06:15:26.005Z,14.30
2019-03-22T06:17:55.546Z,15.60
2019-03-22T06:20:22.494Z,19.27
2019-03-22T06:22:49.130Z,13.03
2019-03-22T06:25:16.215Z,13.97
2019-03-22T06:27:43.102Z,16.30
2019-03-22T06:30:10.165Z,13.50
2019-03-22T06:32:36.910Z,14.23
2019-03-22T06:35:03.784Z,17.52
2019-03-22T06:37:30.676Z,12.40
2019-03-22T06:39:57.713Z,13.83
2019-03-22T06:42:24.322Z,10.33
2019-03-22T06:44:51.019Z,11.80
2019-03-22T06:47:17.678Z,12.27
2019-03-22T06:49:44.305Z,11.00
2019-03-22T06:52:11.354Z,16.75
2019-03-22T06:54:38.380Z,13.43
2019-03-22T06:57:05.844Z,12.93
2019-03-22T06:59:32.864Z,18.97
2019-03-22T07:01:59.539Z,10.60
2019-03-22T07:04:26.164Z,10.90
2019-03-22T07:06:53.119Z,12.73
2019-03-22T07:09:20.165Z,10.07
2019-03-22T07:11:57.248Z,9.25
2019-03-22T07:17:13.174Z,7.43
2019-03-22T07:19:40.013Z,12.60
2019-03-22T07:27:40.401Z,9.40
2019-03-22T07:30:17.928Z,10.73
2019-03-22T07:32:37.300Z,11.87
2019-03-22T07:35:08.027Z,8.57
2019-03-22T07:37:35.630Z,9.73
2019-03-22T07:40:02.679Z,10.63
2019-03-22T07:42:29.351Z,11.43
2019-03-22T07:44:56.496Z,7.73
2019-03-22T07:47:25.363Z,9.17
2019-03-22T07:49:52.035Z,9.00
2019-03-22T07:55:05.522Z,9.53
2019-03-22T07:57:34.129Z,9.13
2019-03-22T08:00:05.183Z,6.67
2019-03-22T08:02:36.875Z,9.37
2019-03-22T08:05:03.487Z,12.45
2019-03-22T08:07:30.447Z,8.70
2019-03-22T08:09:58.432Z,11.10
2019-03-22T08:12:25.106Z,9.50
2019-03-22T08:17:41.456Z,11.37
2019-03-22T08:20:08.268Z,9.53
2019-03-22T08:22:35.170Z,7.13
2019-03-22T08:25:01.786Z,6.43
2019-03-22T08:27:28.725Z,11.00
2019-03-22T08:29:55.521Z,8.87
2019-03-22T08:32:23.098Z,5.40
2019-03-22T08:34:49.843Z,8.03
2019-03-22T08:37:18.111Z,7.06
2019-03-22T08:39:47.727Z,11.23
2019-03-22T08:42:14.177Z,8.07
2019-03-22T08:44:40.869Z,9.20
2019-03-22T08:47:07.831Z,9.30
2019-03-22T08:49:34.690Z,10.53
2019-03-22T08:52:01.434Z,6.47
2019-03-22T08:54:28.126Z,8.40
2019-03-22T08:56:55.049Z,12.13
2019-03-22T08:59:24.688Z,8.47
2019-03-22T09:01:52.310Z,12.15
2019-03-22T09:04:19.205Z,8.77
2019-03-22T09:06:47.121Z,11.80
2019-03-22T09:09:13.832Z,17.20
2019-03-22T09:11:40.685Z,11.77
2019-03-22T09:14:07.379Z,12.25
2019-03-22T09:16:34.088Z,21.20
2019-03-22T09:19:02.496Z,15.84
2019-03-22T09:21:29.119Z,21.43
2019-03-22T09:23:56.704Z,16.25
2019-03-22T09:26:23.623Z,18.70
2019-03-22T09:28:50.469Z,16.93
2019-03-22T09:31:17.081Z,18.03
2019-03-22T09:33:43.676Z,16.63
2019-03-22T09:36:10.287Z,13.77
2019-03-22T09:38:38.000Z,17.65
2019-03-22T09:41:04.861Z,18.57
2019-03-22T09:43:31.665Z,13.80
2019-03-22T09:46:00.699Z,12.43
2019-03-22T09:48:27.336Z,15.07
2019-03-22T09:50:54.032Z,12.13
2019-03-22T09:53:21.008Z,13.30
2019-03-22T09:55:47.991Z,12.03
2019-03-22T09:58:14.591Z,15.35
2019-03-22T10:00:41.169Z,14.10
2019-03-22T10:03:07.782Z,19.47
2019-03-22T10:05:34.449Z,11.77
2019-03-22T10:08:01.361Z,14.07
2019-03-22T10:10:28.523Z,12.10
2019-03-22T10:12:55.115Z,13.07
2019-03-22T10:15:22.067Z,10.20
2019-03-22T10:20:36.719Z,10.72
2019-03-22T10:23:22.306Z,12.20
2019-03-22T10:25:53.655Z,12.73
2019-03-22T10:28:22.634Z,11.75
2019-03-22T10:30:54.112Z,12.70
2019-03-22T10:33:25.609Z,14.93
2019-03-22T10:35:52.779Z,14.17
2019-03-22T10:38:30.989Z,11.17
2019-03-22T10:40:52.419Z,13.33
2019-03-22T10:43:19.404Z,12.20
2019-03-22T10:45:46.492Z,15.15
2019-03-22T10:48:15.423Z,13.33
2019-03-22T10:50:46.721Z,12.60
2019-03-22T10:53:17.470Z,15.17
2019-03-22T10:55:46.894Z,11.10
2019-03-22T10:58:21.369Z,13.13
2019-03-22T11:00:47.847Z,12.80
2019-03-22T11:03:14.290Z,14.63
2019-03-22T11:05:41.251Z,10.43
2019-03-22T11:08:08.149Z,11.28
2019-03-22T11:10:35.083Z,9.90
2019-03-22T11:13:01.833Z,10.47
2019-03-22T11:15:28.650Z,14.77
2019-03-22T11:17:55.569Z,10.93
2019-03-22T11:20:22.507Z,12.75
2019-03-22T11:22:49.106Z,12.37
2019-03-22T11:25:15.892Z,11.17
2019-03-22T11:27:42.540Z,10.07
2019-03-22T11:30:09.107Z,10.13
2019-03-22T11:32:35.951Z,11.83
2019-03-22T11:35:03.023Z,13.60
2019-03-22T11:37:29.622Z,10.07
2019-03-22T11:39:56.380Z,15.37
2019-03-22T11:42:24.343Z,13.63
2019-03-22T11:44:50.965Z,12.27
2019-03-22T11:47:17.612Z,11.67
2019-03-22T11:49:44.538Z,12.10
2019-03-22T11:52:11.178Z,11.10
2019-03-22T11:54:37.793Z,9.57
2019-03-22T11:57:04.674Z,9.83
2019-03-22T11:59:32.951Z,10.23
2019-03-22T12:01:59.873Z,10.67
2019-03-22T12:04:26.777Z,12.20
2019-03-22T12:06:53.958Z,10.82
2019-03-22T12:09:22.955Z,12.93
2019-03-22T12:11:50.296Z,9.70
2019-03-22T12:14:17.206Z,12.67
2019-03-22T12:16:43.876Z,11.63
2019-03-22T12:19:14.579Z,9.68
2019-03-22T12:21:41.189Z,9.43
2019-03-22T12:24:08.152Z,11.33
2019-03-22T12:26:35.419Z,12.07
2019-03-22T12:29:02.569Z,10.55
2019-03-22T12:31:29.795Z,10.78
2019-03-22T12:33:56.965Z,10.73
2019-03-22T12:36:25.650Z,9.98
2019-03-22T12:38:52.542Z,12.47
2019-03-22T12:41:19.744Z,11.50
2019-03-22T12:43:46.940Z,9.43
2019-03-22T12:46:13.890Z,8.80
2019-03-22T12:48:41.136Z,9.25
2019-03-22T12:51:08.058Z,10.03
2019-03-22T12:53:34.945Z,10.47
2019-03-22T12:56:02.264Z,9.13
2019-03-22T12:58:29.187Z,13.73
2019-03-22T13:00:56.381Z,9.25
2019-03-22T13:03:24.400Z,8.80
2019-03-22T13:05:51.363Z,11.90
2019-03-22T13:08:18.282Z,9.50
2019-03-22T13:10:45.159Z,10.00
2019-03-22T13:13:12.094Z,9.77
2019-03-22T13:15:38.702Z,10.43
2019-03-22T13:18:05.632Z,11.47
2019-03-22T13:20:32.550Z,9.13
2019-03-22T13:22:59.423Z,11.20
2019-03-22T13:25:26.674Z,8.87
2019-03-22T13:27:53.504Z,9.70
2019-03-22T13:30:20.428Z,9.87
2019-03-22T13:32:52.168Z,9.13
2019-03-22T13:35:16.021Z,8.03
2019-03-22T13:37:43.782Z,9.70
2019-03-22T13:40:10.703Z,10.13
2019-03-22T13:42:37.853Z,10.32
2019-03-22T13:45:19.730Z,9.40
2019-03-22T13:47:47.187Z,12.17
2019-03-22T13:50:14.143Z,10.73
2019-03-22T13:52:41.027Z,9.25
2019-03-22T13:55:08.320Z,8.88
2019-03-22T13:57:35.189Z,8.53
2019-03-22T14:00:01.903Z,9.07
2019-03-22T14:02:30.159Z,9.58
2019-03-22T14:04:56.765Z,9.07
2019-03-22T14:07:23.630Z,9.00
2019-03-22T14:09:52.045Z,8.08
2019-03-22T14:12:18.996Z,8.30
2019-03-22T14:14:47.154Z,8.70
2019-03-22T14:17:14.021Z,8.53
2019-03-22T14:19:40.913Z,8.57
2019-03-22T14:22:07.805Z,9.17
2019-03-22T14:24:35.004Z,7.72
2019-03-22T14:27:02.027Z,9.83
2019-03-22T14:29:28.609Z,8.73
2019-03-22T14:31:55.857Z,9.38
2019-03-22T14:34:23.089Z,11.22
2019-03-22T14:36:49.978Z,8.87
2019-03-22T14:39:16.900Z,8.80
2019-03-22T14:41:43.771Z,8.33
2019-03-22T14:44:10.739Z,9.37
2019-03-22T14:46:37.674Z,10.07
2019-03-22T14:49:04.709Z,9.47
2019-03-22T14:51:31.466Z,8.30
2019-03-22T14:53:58.771Z,12.58
2019-03-22T14:56:25.773Z,7.30
2019-03-22T14:58:52.836Z,9.47
2019-03-22T15:01:20.032Z,8.35
2019-03-22T15:03:46.802Z,7.03
2019-03-22T15:06:13.708Z,9.93
2019-03-22T15:08:40.821Z,7.73
2019-03-22T15:11:07.809Z,8.97
2019-03-22T15:13:34.671Z,7.50
2019-03-22T15:16:01.634Z,6.62
2019-03-22T15:18:28.498Z,9.23
2019-03-22T15:20:55.832Z,6.45
2019-03-22T15:23:23.171Z,8.63
2019-03-22T15:25:50.513Z,7.08
2019-03-22T15:28:17.108Z,6.35
2019-03-22T15:30:44.014Z,7.27
2019-03-22T15:33:10.801Z,6.50
2019-03-22T15:35:37.762Z,7.30
2019-03-22T15:38:04.759Z,7.93
2019-03-22T15:40:31.657Z,8.87
2019-03-22T15:42:58.500Z,7.33
2019-03-22T15:45:25.828Z,8.13
2019-03-22T15:47:52.966Z,8.50
2019-03-22T15:50:19.897Z,9.33
2019-03-22T15:52:46.849Z,7.10
2019-03-22T15:55:13.837Z,7.93
2019-03-22T15:57:40.609Z,7.50
2019-03-22T16:00:07.561Z,8.47
2019-03-22T16:02:34.548Z,7.33
2019-03-22T16:05:07.898Z,7.73
2019-03-22T16:07:34.820Z,5.57
2019-03-22T16:10:01.652Z,7.73
2019-03-22T16:12:28.566Z,6.97
2019-03-22T16:14:55.193Z,5.70
2019-03-22T16:17:22.159Z,6.67
2019-03-22T16:19:50.088Z,8.73
2019-03-22T16:22:16.990Z,5.50
2019-03-22T16:24:44.917Z,6.37
2019-03-22T16:27:11.788Z,7.47
2019-03-22T16:29:38.683Z,5.80
2019-03-22T16:32:07.074Z,6.30
2019-03-22T16:34:35.278Z,7.45
2019-03-22T16:37:03.128Z,6.60
2019-03-22T16:39:31.374Z,6.87
2019-03-22T16:41:58.261Z,6.67
2019-03-22T16:44:25.419Z,5.40
2019-03-22T16:46:53.292Z,4.73
2019-03-22T16:49:21.197Z,5.03
2019-03-22T16:51:48.026Z,9.20
2019-03-22T16:54:15.660Z,6.20
2019-03-22T16:56:42.412Z,6.75
2019-03-22T16:59:09.484Z,11.00
2019-03-22T17:01:37.127Z,10.30
2019-03-22T17:04:04.964Z,11.13
2019-03-22T17:06:32.206Z,8.83
2019-03-22T17:09:00.470Z,7.03
2019-03-22T17:14:12.143Z,7.17
2019-03-22T17:16:38.871Z,12.70
2019-03-22T17:19:05.585Z,9.23
2019-03-22T17:21:32.501Z,9.30
2019-03-22T17:24:00.395Z,8.55
2019-03-22T17:26:31.316Z,9.03
2019-03-22T17:29:00.066Z,9.60
2019-03-22T17:31:26.926Z,7.53
2019-03-22T17:33:53.767Z,8.40
2019-03-22T17:36:20.432Z,11.60
2019-03-22T17:38:47.137Z,10.20
2019-03-22T17:41:14.361Z,15.73
2019-03-22T17:43:41.091Z,11.53
2019-03-22T17:46:08.793Z,12.87
2019-03-22T17:48:35.454Z,11.30
2019-03-22T17:51:02.309Z,11.27
2019-03-22T17:53:29.261Z,13.17
2019-03-22T17:55:55.882Z,11.43
2019-03-22T17:58:22.703Z,11.63
2019-03-22T18:00:49.360Z,14.23
2019-03-22T18:03:16.955Z,11.97
2019-03-22T18:05:44.841Z,9.27
2019-03-22T18:08:11.438Z,9.87
2019-03-22T18:13:31.727Z,15.37
2019-03-22T18:15:58.598Z,12.93
2019-03-22T18:18:25.174Z,12.20
2019-03-22T18:20:53.772Z,10.90
2019-03-22T18:23:24.600Z,11.88
2019-03-22T18:26:04.697Z,14.53
2019-03-22T18:28:54.288Z,10.23
2019-03-22T18:31:16.636Z,14.30
2019-03-22T18:33:52.022Z,12.77
2019-03-22T18:36:14.675Z,10.57
2019-03-22T18:39:06.942Z,12.60
2019-03-22T18:41:12.149Z,16.23
2019-03-22T18:43:47.805Z,14.83
2019-03-22T18:46:12.177Z,16.87
2019-03-22T18:48:40.895Z,11.93
2019-03-22T18:51:09.352Z,13.87
2019-03-22T18:53:38.970Z,14.85
2019-03-22T18:56:19.996Z,16.70
2019-03-22T18:58:47.449Z,12.47
2019-03-22T19:01:19.719Z,13.70
2019-03-22T19:06:24.514Z,13.87
2019-03-22T19:08:50.392Z,13.73
2019-03-22T19:11:16.949Z,11.95
2019-03-22T19:13:45.651Z,12.55
2019-03-22T19:16:14.543Z,12.17
2019-03-22T19:18:49.287Z,12.90
2019-03-22T19:21:21.968Z,15.43
2019-03-22T19:23:50.583Z,12.37
2019-03-22T19:26:21.160Z,15.00
2019-03-22T19:28:52.594Z,12.50
2019-03-22T19:31:20.229Z,11.67
2019-03-22T19:33:49.132Z,11.83
2019-03-22T19:36:18.826Z,17.50
2019-03-22T19:38:48.606Z,23.73
2019-03-22T19:41:18.623Z,19.53
2019-03-22T19:43:45.476Z,16.62
2019-03-22T19:49:28.556Z,10.77
2019-03-22T19:51:58.586Z,12.20
2019-03-22T19:54:30.355Z,11.93
2019-03-22T19:57:01.546Z,12.13
2019-03-22T19:59:32.243Z,13.30
2019-03-22T20:02:01.009Z,15.20
2019-03-22T20:04:28.570Z,12.33
2019-03-22T20:06:55.448Z,13.90
2019-03-22T20:09:24.065Z,13.43
2019-03-22T20:11:52.776Z,19.90
2019-03-22T20:14:19.375Z,16.27
2019-03-22T20:16:46.095Z,15.60
2019-03-22T20:21:58.274Z,13.87
2019-03-22T20:24:25.944Z,16.07
2019-03-22T20:26:59.785Z,20.30
2019-03-22T20:29:27.451Z,18.40
2019-03-22T20:31:54.306Z,15.23
2019-03-22T20:34:21.205Z,19.87
2019-03-22T20:36:47.925Z,17.80
2019-03-22T20:39:14.615Z,13.77
2019-03-22T20:41:41.453Z,19.70
2019-03-22T20:44:08.903Z,16.10
2019-03-22T20:46:36.147Z,16.70
2019-03-22T20:49:05.068Z,14.37
2019-03-22T20:51:31.224Z,16.57
2019-03-22T20:53:57.861Z,13.83
2019-03-22T20:56:24.820Z,15.47
2019-03-22T20:58:51.833Z,14.60
2019-03-22T21:01:18.454Z,14.87
2019-03-22T21:03:45.189Z,15.60
2019-03-22T21:06:12.199Z,17.13
2019-03-22T21:08:38.926Z,17.47
2019-03-22T21:11:05.815Z,14.63
2019-03-22T21:13:32.502Z,17.23
2019-03-22T21:15:59.498Z,16.17
2019-03-22T21:18:26.081Z,16.70
2019-03-22T21:20:52.689Z,17.57
2019-03-22T21:23:19.658Z,16.20
2019-03-22T21:25:46.478Z,14.50
2019-03-22T21:28:13.633Z,15.03
2019-03-22T21:30:40.252Z,14.87
2019-03-22T21:33:08.244Z,15.80
2019-03-22T21:35:37.469Z,17.70
2019-03-22T21:38:10.792Z,16.37
2019-03-22T21:40:31.867Z,19.53
2019-03-22T21:43:00.349Z,16.77
2019-03-22T21:45:26.910Z,19.67
2019-03-22T21:47:53.787Z,19.30
2019-03-22T21:50:20.482Z,15.00
2019-03-22T21:52:47.097Z,18.93
2019-03-22T21:55:13.754Z,17.50
2019-03-22T21:57:40.555Z,18.53
2019-03-22T22:00:07.156Z,18.75
2019-03-22T22:02:34.788Z,15.73
2019-03-22T22:05:01.730Z,14.70
2019-03-22T22:07:28.612Z,14.87
2019-03-22T22:09:55.197Z,15.03
2019-03-22T22:12:21.839Z,15.90
2019-03-22T22:14:49.737Z,16.47
2019-03-22T22:17:16.612Z,15.88
2019-03-22T22:19:46.927Z,11.47
2019-03-22T22:22:18.016Z,17.77
2019-03-22T22:24:45.616Z,14.10
2019-03-22T22:27:18.029Z,15.53
2019-03-22T22:29:47.560Z,14.87
2019-03-22T22:32:25.833Z,15.07
2019-03-22T22:34:55.632Z,16.83
2019-03-22T22:40:14.749Z,17.33
2019-03-22T22:42:42.378Z,15.37
2019-03-22T22:45:10.633Z,15.77
2019-03-22T22:47:39.585Z,13.50
2019-03-22T22:50:12.343Z,16.83
2019-03-22T22:52:41.740Z,13.83
2019-03-22T22:55:21.031Z,14.87
2019-03-22T22:57:49.149Z,16.13
2019-03-22T23:00:16.321Z,15.33
2019-03-22T23:02:46.909Z,15.27
2019-03-22T23:05:18.576Z,14.93
2019-03-22T23:07:47.549Z,16.55
2019-03-22T23:10:20.980Z,17.05
2019-03-22T23:12:48.750Z,14.87
2019-03-22T23:15:18.065Z,16.43
2019-03-22T23:17:46.937Z,15.40
2019-03-22T23:20:16.961Z,16.40
2019-03-22T23:22:47.604Z,15.87
2019-03-22T23:25:37.030Z,16.73
2019-03-22T23:27:45.543Z,16.40
2019-03-22T23:30:16.766Z,15.97
2019-03-22T23:35:30.610Z,13.67
2019-03-22T23:37:58.018Z,13.27
2019-03-22T23:40:28.950Z,17.20
2019-03-22T23:42:57.143Z,15.10
2019-03-22T23:45:24.503Z,14.03
2019-03-22T23:47:52.947Z,13.40
2019-03-22T23:50:20.893Z,12.77
2019-03-22T23:52:47.831Z,14.90
2019-03-22T23:55:15.502Z,14.70
2019-03-22T23:57:44.277Z,13.60
